sensor_id;sensor_type;location;lat;lon;timestamp;temperature;humidity
2893;DHT22;1456;51.840;12.184;2023-04-28T00:02:10;5.60;98.70
2893;DHT22;1456;51.840;12.184;2023-04-28T00:04:36;5.60;98.40
2893;DHT22;1456;51.840;12.184;2023-04-28T00:07:03;5.60;98.80
2893;DHT22;1456;51.840;12.184;2023-04-28T00:09:30;5.60;98.90
2893;DHT22;1456;51.840;12.184;2023-04-28T00:11:55;5.60;98.80
2893;DHT22;1456;51.840;12.184;2023-04-28T00:14:22;5.60;98.40
2893;DHT22;1456;51.840;12.184;2023-04-28T00:16:48;5.70;98.00
2893;DHT22;1456;51.840;12.184;2023-04-28T00:19:14;5.60;98.20
2893;DHT22;1456;51.840;12.184;2023-04-28T00:21:40;5.60;97.80
2893;DHT22;1456;51.840;12.184;2023-04-28T00:24:07;5.60;97.50
2893;DHT22;1456;51.840;12.184;2023-04-28T00:26:32;5.60;97.60
2893;DHT22;1456;51.840;12.184;2023-04-28T00:29:00;5.60;98.10
2893;DHT22;1456;51.840;12.184;2023-04-28T00:31:26;5.70;97.60
2893;DHT22;1456;51.840;12.184;2023-04-28T00:33:52;5.70;97.70
2893;DHT22;1456;51.840;12.184;2023-04-28T00:36:18;5.80;97.80
2893;DHT22;1456;51.840;12.184;2023-04-28T00:38:45;5.90;97.70
2893;DHT22;1456;51.840;12.184;2023-04-28T00:41:10;5.90;98.20
2893;DHT22;1456;51.840;12.184;2023-04-28T00:43:44;5.90;98.10
2893;DHT22;1456;51.840;12.184;2023-04-28T00:46:23;6.00;97.80
2893;DHT22;1456;51.840;12.184;2023-04-28T00:48:49;6.10;98.10
2893;DHT22;1456;51.840;12.184;2023-04-28T00:51:16;6.10;98.10
2893;DHT22;1456;51.840;12.184;2023-04-28T00:53:43;6.10;97.70
2893;DHT22;1456;51.840;12.184;2023-04-28T00:56:09;6.20;96.90
2893;DHT22;1456;51.840;12.184;2023-04-28T00:58:34;6.20;97.60
2893;DHT22;1456;51.840;12.184;2023-04-28T01:01:07;6.20;97.70
2893;DHT22;1456;51.840;12.184;2023-04-28T01:03:35;6.10;97.60
2893;DHT22;1456;51.840;12.184;2023-04-28T01:06:04;6.10;97.60
2893;DHT22;1456;51.840;12.184;2023-04-28T01:08:32;6.10;97.60
2893;DHT22;1456;51.840;12.184;2023-04-28T01:10:59;6.00;97.60
2893;DHT22;1456;51.840;12.184;2023-04-28T01:13:27;6.00;97.30
2893;DHT22;1456;51.840;12.184;2023-04-28T01:15:54;6.00;97.50
2893;DHT22;1456;51.840;12.184;2023-04-28T01:18:20;5.90;97.50
2893;DHT22;1456;51.840;12.184;2023-04-28T01:20:48;5.80;97.40
2893;DHT22;1456;51.840;12.184;2023-04-28T01:23:16;5.80;97.50
2893;DHT22;1456;51.840;12.184;2023-04-28T01:25:43;5.70;97.80
2893;DHT22;1456;51.840;12.184;2023-04-28T01:28:11;5.70;98.10
2893;DHT22;1456;51.840;12.184;2023-04-28T01:30:38;5.60;98.00
2893;DHT22;1456;51.840;12.184;2023-04-28T01:33:03;5.60;98.10
2893;DHT22;1456;51.840;12.184;2023-04-28T01:35:29;5.60;97.90
2893;DHT22;1456;51.840;12.184;2023-04-28T01:37:55;5.60;97.80
2893;DHT22;1456;51.840;12.184;2023-04-28T01:40:23;5.60;97.60
2893;DHT22;1456;51.840;12.184;2023-04-28T01:42:48;5.60;97.60
2893;DHT22;1456;51.840;12.184;2023-04-28T01:45:15;5.60;97.90
2893;DHT22;1456;51.840;12.184;2023-04-28T01:47:43;5.60;98.10
2893;DHT22;1456;51.840;12.184;2023-04-28T01:50:09;5.70;98.10
2893;DHT22;1456;51.840;12.184;2023-04-28T01:52:35;5.70;98.00
2893;DHT22;1456;51.840;12.184;2023-04-28T01:55:00;5.70;98.00
2893;DHT22;1456;51.840;12.184;2023-04-28T01:57:27;5.80;97.90
2893;DHT22;1456;51.840;12.184;2023-04-28T01:59:53;5.80;98.20
2893;DHT22;1456;51.840;12.184;2023-04-28T02:02:19;5.90;98.20
2893;DHT22;1456;51.840;12.184;2023-04-28T02:04:51;5.90;98.10
2893;DHT22;1456;51.840;12.184;2023-04-28T02:07:16;5.90;98.00
2893;DHT22;1456;51.840;12.184;2023-04-28T02:09:42;6.00;98.10
2893;DHT22;1456;51.840;12.184;2023-04-28T02:12:08;6.00;97.80
2893;DHT22;1456;51.840;12.184;2023-04-28T02:14:33;6.00;97.70
2893;DHT22;1456;51.840;12.184;2023-04-28T02:16:59;6.00;97.40
2893;DHT22;1456;51.840;12.184;2023-04-28T02:19:25;6.00;97.50
2893;DHT22;1456;51.840;12.184;2023-04-28T02:21:50;6.00;97.60
2893;DHT22;1456;51.840;12.184;2023-04-28T02:24:17;6.00;97.70
2893;DHT22;1456;51.840;12.184;2023-04-28T02:26:43;6.00;97.80
2893;DHT22;1456;51.840;12.184;2023-04-28T02:29:08;5.90;97.90
2893;DHT22;1456;51.840;12.184;2023-04-28T02:31:35;5.90;97.90
2893;DHT22;1456;51.840;12.184;2023-04-28T02:34:04;6.00;97.90
2893;DHT22;1456;51.840;12.184;2023-04-28T02:36:29;5.90;97.80
2893;DHT22;1456;51.840;12.184;2023-04-28T02:38:57;5.90;97.80
2893;DHT22;1456;51.840;12.184;2023-04-28T02:41:23;5.80;98.00
2893;DHT22;1456;51.840;12.184;2023-04-28T02:43:49;5.70;98.00
2893;DHT22;1456;51.840;12.184;2023-04-28T02:46:15;5.70;98.20
2893;DHT22;1456;51.840;12.184;2023-04-28T02:48:40;5.60;98.40
2893;DHT22;1456;51.840;12.184;2023-04-28T02:51:06;5.60;98.30
2893;DHT22;1456;51.840;12.184;2023-04-28T02:53:32;5.60;98.60
2893;DHT22;1456;51.840;12.184;2023-04-28T02:55:57;5.50;98.70
2893;DHT22;1456;51.840;12.184;2023-04-28T02:58:25;5.50;99.10
2893;DHT22;1456;51.840;12.184;2023-04-28T03:00:52;5.50;99.10
2893;DHT22;1456;51.840;12.184;2023-04-28T03:03:19;5.40;99.20
2893;DHT22;1456;51.840;12.184;2023-04-28T03:05:45;5.40;99.40
2893;DHT22;1456;51.840;12.184;2023-04-28T03:08:11;5.40;99.50
2893;DHT22;1456;51.840;12.184;2023-04-28T03:10:37;5.30;99.60
2893;DHT22;1456;51.840;12.184;2023-04-28T03:13:02;5.30;99.60
2893;DHT22;1456;51.840;12.184;2023-04-28T03:15:28;5.30;99.80
2893;DHT22;1456;51.840;12.184;2023-04-28T03:17:53;5.40;99.80
2893;DHT22;1456;51.840;12.184;2023-04-28T03:20:19;5.50;99.90
2893;DHT22;1456;51.840;12.184;2023-04-28T03:22:47;5.50;99.60
2893;DHT22;1456;51.840;12.184;2023-04-28T03:25:13;5.60;99.60
2893;DHT22;1456;51.840;12.184;2023-04-28T03:27:39;5.60;99.50
2893;DHT22;1456;51.840;12.184;2023-04-28T03:30:05;5.60;99.40
2893;DHT22;1456;51.840;12.184;2023-04-28T03:32:33;5.60;99.30
2893;DHT22;1456;51.840;12.184;2023-04-28T03:34:59;5.60;99.60
2893;DHT22;1456;51.840;12.184;2023-04-28T03:37:25;5.50;99.80
2893;DHT22;1456;51.840;12.184;2023-04-28T03:39:52;5.60;99.60
2893;DHT22;1456;51.840;12.184;2023-04-28T03:42:20;5.60;99.80
2893;DHT22;1456;51.840;12.184;2023-04-28T03:44:46;5.60;99.90
2893;DHT22;1456;51.840;12.184;2023-04-28T03:47:12;5.60;99.60
2893;DHT22;1456;51.840;12.184;2023-04-28T03:49:40;5.60;99.60
2893;DHT22;1456;51.840;12.184;2023-04-28T03:52:05;5.60;99.60
2893;DHT22;1456;51.840;12.184;2023-04-28T03:54:31;5.70;99.90
2893;DHT22;1456;51.840;12.184;2023-04-28T03:57:04;5.70;99.60
2893;DHT22;1456;51.840;12.184;2023-04-28T03:59:30;5.70;99.70
2893;DHT22;1456;51.840;12.184;2023-04-28T04:02:03;5.80;99.80
2893;DHT22;1456;51.840;12.184;2023-04-28T04:04:30;5.80;99.70
2893;DHT22;1456;51.840;12.184;2023-04-28T04:06:57;5.80;99.70
2893;DHT22;1456;51.840;12.184;2023-04-28T04:09:24;5.80;99.60
2893;DHT22;1456;51.840;12.184;2023-04-28T04:11:50;5.70;99.80
2893;DHT22;1456;51.840;12.184;2023-04-28T04:14:19;5.70;99.80
2893;DHT22;1456;51.840;12.184;2023-04-28T04:16:46;5.70;99.80
2893;DHT22;1456;51.840;12.184;2023-04-28T04:19:13;5.80;99.80
2893;DHT22;1456;51.840;12.184;2023-04-28T04:21:39;5.70;99.70
2893;DHT22;1456;51.840;12.184;2023-04-28T04:24:05;5.70;99.90
2893;DHT22;1456;51.840;12.184;2023-04-28T04:26:31;5.80;99.70
2893;DHT22;1456;51.840;12.184;2023-04-28T04:28:57;5.80;99.70
2893;DHT22;1456;51.840;12.184;2023-04-28T04:31:23;5.80;99.70
2893;DHT22;1456;51.840;12.184;2023-04-28T04:33:50;5.80;99.80
2893;DHT22;1456;51.840;12.184;2023-04-28T04:36:16;5.90;99.60
2893;DHT22;1456;51.840;12.184;2023-04-28T04:38:42;5.90;99.70
2893;DHT22;1456;51.840;12.184;2023-04-28T04:41:07;5.90;99.70
2893;DHT22;1456;51.840;12.184;2023-04-28T04:43:33;5.90;99.60
2893;DHT22;1456;51.840;12.184;2023-04-28T04:45:59;5.90;99.60
2893;DHT22;1456;51.840;12.184;2023-04-28T04:48:25;5.90;99.60
2893;DHT22;1456;51.840;12.184;2023-04-28T04:50:50;5.90;99.50
2893;DHT22;1456;51.840;12.184;2023-04-28T04:53:18;6.00;99.50
2893;DHT22;1456;51.840;12.184;2023-04-28T04:55:45;6.00;99.50
2893;DHT22;1456;51.840;12.184;2023-04-28T04:58:10;6.00;99.70
2893;DHT22;1456;51.840;12.184;2023-04-28T05:00:37;6.00;99.60
2893;DHT22;1456;51.840;12.184;2023-04-28T05:03:04;6.10;99.60
2893;DHT22;1456;51.840;12.184;2023-04-28T05:05:31;6.10;99.40
2893;DHT22;1456;51.840;12.184;2023-04-28T05:08:00;6.10;99.50
2893;DHT22;1456;51.840;12.184;2023-04-28T05:10:27;6.10;99.50
2893;DHT22;1456;51.840;12.184;2023-04-28T05:12:53;6.10;99.40
2893;DHT22;1456;51.840;12.184;2023-04-28T05:15:19;6.10;99.50
2893;DHT22;1456;51.840;12.184;2023-04-28T05:17:48;6.10;99.60
2893;DHT22;1456;51.840;12.184;2023-04-28T05:20:14;6.20;99.70
2893;DHT22;1456;51.840;12.184;2023-04-28T05:22:45;6.30;99.90
2893;DHT22;1456;51.840;12.184;2023-04-28T05:25:14;6.50;99.70
2893;DHT22;1456;51.840;12.184;2023-04-28T05:27:43;6.70;99.50
2893;DHT22;1456;51.840;12.184;2023-04-28T05:30:09;6.90;99.00
2893;DHT22;1456;51.840;12.184;2023-04-28T05:32:53;7.00;99.10
2893;DHT22;1456;51.840;12.184;2023-04-28T05:35:31;7.30;98.80
2893;DHT22;1456;51.840;12.184;2023-04-28T05:38:05;7.40;98.30
2893;DHT22;1456;51.840;12.184;2023-04-28T05:40:35;7.60;97.90
2893;DHT22;1456;51.840;12.184;2023-04-28T05:43:02;7.70;97.80
2893;DHT22;1456;51.840;12.184;2023-04-28T05:45:36;7.80;97.70
2893;DHT22;1456;51.840;12.184;2023-04-28T05:48:09;7.90;97.10
2893;DHT22;1456;51.840;12.184;2023-04-28T05:50:41;7.90;97.30
2893;DHT22;1456;51.840;12.184;2023-04-28T05:53:12;8.00;97.00
2893;DHT22;1456;51.840;12.184;2023-04-28T05:55:47;8.10;97.30
2893;DHT22;1456;51.840;12.184;2023-04-28T05:58:13;8.30;97.10
2893;DHT22;1456;51.840;12.184;2023-04-28T06:00:45;8.50;97.00
2893;DHT22;1456;51.840;12.184;2023-04-28T06:03:12;8.80;96.40
2893;DHT22;1456;51.840;12.184;2023-04-28T06:05:40;9.00;96.40
2893;DHT22;1456;51.840;12.184;2023-04-28T06:08:06;9.10;95.70
2893;DHT22;1456;51.840;12.184;2023-04-28T06:10:32;9.30;95.80
2893;DHT22;1456;51.840;12.184;2023-04-28T06:12:58;9.40;95.40
2893;DHT22;1456;51.840;12.184;2023-04-28T06:15:27;9.50;95.00
2893;DHT22;1456;51.840;12.184;2023-04-28T06:17:54;9.60;94.60
2893;DHT22;1456;51.840;12.184;2023-04-28T06:20:20;9.60;95.00
2893;DHT22;1456;51.840;12.184;2023-04-28T06:22:46;9.70;94.70
2893;DHT22;1456;51.840;12.184;2023-04-28T06:25:12;9.70;94.60
2893;DHT22;1456;51.840;12.184;2023-04-28T06:27:40;9.80;94.40
2893;DHT22;1456;51.840;12.184;2023-04-28T06:30:20;9.80;94.30
2893;DHT22;1456;51.840;12.184;2023-04-28T06:32:46;9.90;95.00
2893;DHT22;1456;51.840;12.184;2023-04-28T06:35:12;10.00;94.40
2893;DHT22;1456;51.840;12.184;2023-04-28T06:37:38;10.20;94.40
2893;DHT22;1456;51.840;12.184;2023-04-28T06:40:05;10.30;94.30
2893;DHT22;1456;51.840;12.184;2023-04-28T06:42:31;10.40;94.00
2893;DHT22;1456;51.840;12.184;2023-04-28T06:44:58;10.50;93.30
2893;DHT22;1456;51.840;12.184;2023-04-28T06:47:24;10.60;93.50
2893;DHT22;1456;51.840;12.184;2023-04-28T06:49:50;10.80;94.00
2893;DHT22;1456;51.840;12.184;2023-04-28T06:52:16;11.10;93.60
2893;DHT22;1456;51.840;12.184;2023-04-28T06:54:43;11.30;93.50
2893;DHT22;1456;51.840;12.184;2023-04-28T06:57:09;11.40;93.00
2893;DHT22;1456;51.840;12.184;2023-04-28T06:59:35;11.60;93.00
2893;DHT22;1456;51.840;12.184;2023-04-28T07:02:02;11.80;92.60
2893;DHT22;1456;51.840;12.184;2023-04-28T07:04:31;11.90;92.40
2893;DHT22;1456;51.840;12.184;2023-04-28T07:06:57;12.20;92.70
2893;DHT22;1456;51.840;12.184;2023-04-28T07:09:23;12.30;91.90
2893;DHT22;1456;51.840;12.184;2023-04-28T07:11:50;12.50;92.00
2893;DHT22;1456;51.840;12.184;2023-04-28T07:14:17;12.80;91.80
2893;DHT22;1456;51.840;12.184;2023-04-28T07:16:47;13.10;91.00
2893;DHT22;1456;51.840;12.184;2023-04-28T07:19:15;13.50;91.50
2893;DHT22;1456;51.840;12.184;2023-04-28T07:21:47;13.60;90.60
2893;DHT22;1456;51.840;12.184;2023-04-28T07:24:16;13.70;90.60
2893;DHT22;1456;51.840;12.184;2023-04-28T07:26:52;13.90;90.70
2893;DHT22;1456;51.840;12.184;2023-04-28T07:29:17;14.00;90.20
2893;DHT22;1456;51.840;12.184;2023-04-28T07:31:44;13.90;89.10
2893;DHT22;1456;51.840;12.184;2023-04-28T07:34:12;13.70;90.00
2893;DHT22;1456;51.840;12.184;2023-04-28T07:36:39;13.80;90.30
2893;DHT22;1456;51.840;12.184;2023-04-28T07:39:06;13.80;90.00
2893;DHT22;1456;51.840;12.184;2023-04-28T07:41:36;14.00;89.90
2893;DHT22;1456;51.840;12.184;2023-04-28T07:44:06;14.30;90.10
2893;DHT22;1456;51.840;12.184;2023-04-28T07:46:42;14.50;89.70
2893;DHT22;1456;51.840;12.184;2023-04-28T07:49:07;14.80;89.60
2893;DHT22;1456;51.840;12.184;2023-04-28T07:51:35;15.00;89.30
2893;DHT22;1456;51.840;12.184;2023-04-28T07:54:01;15.20;88.80
2893;DHT22;1456;51.840;12.184;2023-04-28T07:56:30;15.30;87.50
2893;DHT22;1456;51.840;12.184;2023-04-28T07:59:00;15.50;87.90
2893;DHT22;1456;51.840;12.184;2023-04-28T08:01:28;15.60;87.90
2893;DHT22;1456;51.840;12.184;2023-04-28T08:03:58;15.90;88.60
2893;DHT22;1456;51.840;12.184;2023-04-28T08:06:24;16.60;88.70
2893;DHT22;1456;51.840;12.184;2023-04-28T08:08:51;17.10;85.50
2893;DHT22;1456;51.840;12.184;2023-04-28T08:11:17;17.40;83.00
2893;DHT22;1456;51.840;12.184;2023-04-28T08:13:45;17.60;84.30
2893;DHT22;1456;51.840;12.184;2023-04-28T08:16:12;17.70;82.40
2893;DHT22;1456;51.840;12.184;2023-04-28T08:18:39;17.80;80.90
2893;DHT22;1456;51.840;12.184;2023-04-28T08:21:05;17.90;81.10
2893;DHT22;1456;51.840;12.184;2023-04-28T08:23:31;18.20;80.40
2893;DHT22;1456;51.840;12.184;2023-04-28T08:25:57;18.40;79.40
2893;DHT22;1456;51.840;12.184;2023-04-28T08:28:25;18.60;78.20
2893;DHT22;1456;51.840;12.184;2023-04-28T08:30:51;18.70;76.70
2893;DHT22;1456;51.840;12.184;2023-04-28T08:33:25;18.70;76.60
2893;DHT22;1456;51.840;12.184;2023-04-28T08:35:56;18.90;77.20
2893;DHT22;1456;51.840;12.184;2023-04-28T08:38:25;18.90;77.00
2893;DHT22;1456;51.840;12.184;2023-04-28T08:40:56;19.30;77.10
2893;DHT22;1456;51.840;12.184;2023-04-28T08:43:24;19.50;77.10
2893;DHT22;1456;51.840;12.184;2023-04-28T08:45:58;19.70;75.80
2893;DHT22;1456;51.840;12.184;2023-04-28T08:48:25;19.80;75.40
2893;DHT22;1456;51.840;12.184;2023-04-28T08:50:53;19.70;75.10
2893;DHT22;1456;51.840;12.184;2023-04-28T08:53:28;19.90;75.40
2893;DHT22;1456;51.840;12.184;2023-04-28T08:56:00;20.10;73.10
2893;DHT22;1456;51.840;12.184;2023-04-28T08:58:26;20.10;72.70
2893;DHT22;1456;51.840;12.184;2023-04-28T09:00:54;20.40;73.80
2893;DHT22;1456;51.840;12.184;2023-04-28T09:03:25;20.70;73.50
2893;DHT22;1456;51.840;12.184;2023-04-28T09:05:53;20.80;71.60
2893;DHT22;1456;51.840;12.184;2023-04-28T09:08:21;20.80;71.40
2893;DHT22;1456;51.840;12.184;2023-04-28T09:10:48;20.60;70.80
2893;DHT22;1456;51.840;12.184;2023-04-28T09:13:36;20.60;72.40
2893;DHT22;1456;51.840;12.184;2023-04-28T09:16:04;20.80;72.90
2893;DHT22;1456;51.840;12.184;2023-04-28T09:18:31;21.10;73.50
2893;DHT22;1456;51.840;12.184;2023-04-28T09:21:13;21.40;74.20
2893;DHT22;1456;51.840;12.184;2023-04-28T09:23:48;21.90;71.00
2893;DHT22;1456;51.840;12.184;2023-04-28T09:26:15;22.10;71.20
2893;DHT22;1456;51.840;12.184;2023-04-28T09:28:41;22.10;69.30
2893;DHT22;1456;51.840;12.184;2023-04-28T09:31:21;22.20;71.10
2893;DHT22;1456;51.840;12.184;2023-04-28T09:34:14;22.40;69.30
2893;DHT22;1456;51.840;12.184;2023-04-28T09:36:40;22.70;69.90
2893;DHT22;1456;51.840;12.184;2023-04-28T09:39:09;23.00;68.50
2893;DHT22;1456;51.840;12.184;2023-04-28T09:41:39;23.30;70.10
2893;DHT22;1456;51.840;12.184;2023-04-28T09:44:22;23.40;66.40
2893;DHT22;1456;51.840;12.184;2023-04-28T09:46:55;23.30;67.40
2893;DHT22;1456;51.840;12.184;2023-04-28T09:49:21;23.30;67.30
2893;DHT22;1456;51.840;12.184;2023-04-28T09:51:49;23.10;62.60
2893;DHT22;1456;51.840;12.184;2023-04-28T09:54:16;23.00;64.40
2893;DHT22;1456;51.840;12.184;2023-04-28T09:56:49;23.00;65.00
2893;DHT22;1456;51.840;12.184;2023-04-28T09:59:26;22.90;65.00
2893;DHT22;1456;51.840;12.184;2023-04-28T10:02:06;22.80;63.30
2893;DHT22;1456;51.840;12.184;2023-04-28T10:04:45;22.40;62.10
2893;DHT22;1456;51.840;12.184;2023-04-28T10:07:27;22.00;61.50
2893;DHT22;1456;51.840;12.184;2023-04-28T10:09:57;21.50;59.60
2893;DHT22;1456;51.840;12.184;2023-04-28T10:12:23;21.00;60.70
2893;DHT22;1456;51.840;12.184;2023-04-28T10:14:52;21.00;61.70
2893;DHT22;1456;51.840;12.184;2023-04-28T10:17:21;21.10;59.20
2893;DHT22;1456;51.840;12.184;2023-04-28T10:19:52;20.40;61.20
2893;DHT22;1456;51.840;12.184;2023-04-28T10:25:26;19.90;63.20
2893;DHT22;1456;51.840;12.184;2023-04-28T10:27:55;19.40;64.00
2893;DHT22;1456;51.840;12.184;2023-04-28T10:30:25;19.20;65.30
2893;DHT22;1456;51.840;12.184;2023-04-28T10:35:45;19.70;67.40
2893;DHT22;1456;51.840;12.184;2023-04-28T10:38:29;19.70;66.20
2893;DHT22;1456;51.840;12.184;2023-04-28T10:40:55;19.50;66.00
2893;DHT22;1456;51.840;12.184;2023-04-28T10:43:39;19.50;68.90
2893;DHT22;1456;51.840;12.184;2023-04-28T10:46:08;19.70;67.60
2893;DHT22;1456;51.840;12.184;2023-04-28T10:56:24;19.30;71.20
2893;DHT22;1456;51.840;12.184;2023-04-28T10:58:55;19.20;71.70
2893;DHT22;1456;51.840;12.184;2023-04-28T11:03:52;18.60;74.20
2893;DHT22;1456;51.840;12.184;2023-04-28T11:06:42;18.60;75.20
2893;DHT22;1456;51.840;12.184;2023-04-28T11:11:39;18.50;75.40
2893;DHT22;1456;51.840;12.184;2023-04-28T11:16:54;18.20;76.80
2893;DHT22;1456;51.840;12.184;2023-04-28T11:21:48;18.10;79.40
2893;DHT22;1456;51.840;12.184;2023-04-28T11:24:20;18.10;80.90
2893;DHT22;1456;51.840;12.184;2023-04-28T11:26:54;18.10;80.50
2893;DHT22;1456;51.840;12.184;2023-04-28T11:29:43;18.20;80.80
2893;DHT22;1456;51.840;12.184;2023-04-28T11:32:12;18.50;80.30
2893;DHT22;1456;51.840;12.184;2023-04-28T11:34:38;18.70;79.70
2893;DHT22;1456;51.840;12.184;2023-04-28T11:37:05;19.00;80.80
2893;DHT22;1456;51.840;12.184;2023-04-28T11:39:37;19.20;79.90
2893;DHT22;1456;51.840;12.184;2023-04-28T11:42:09;19.40;80.30
2893;DHT22;1456;51.840;12.184;2023-04-28T11:44:36;19.60;79.90
2893;DHT22;1456;51.840;12.184;2023-04-28T11:47:05;19.80;80.80
2893;DHT22;1456;51.840;12.184;2023-04-28T11:49:42;19.70;80.40
2893;DHT22;1456;51.840;12.184;2023-04-28T11:52:11;19.60;81.30
2893;DHT22;1456;51.840;12.184;2023-04-28T11:54:37;19.60;83.30
2893;DHT22;1456;51.840;12.184;2023-04-28T11:57:03;19.70;82.10
2893;DHT22;1456;51.840;12.184;2023-04-28T11:59:34;19.90;83.30
2893;DHT22;1456;51.840;12.184;2023-04-28T12:02:05;20.00;84.90
2893;DHT22;1456;51.840;12.184;2023-04-28T12:04:39;19.80;88.00
2893;DHT22;1456;51.840;12.184;2023-04-28T12:09:48;19.00;90.00
2893;DHT22;1456;51.840;12.184;2023-04-28T12:12:29;18.60;90.70
2893;DHT22;1456;51.840;12.184;2023-04-28T12:15:13;18.30;89.90
2893;DHT22;1456;51.840;12.184;2023-04-28T12:17:42;18.10;91.30
2893;DHT22;1456;51.840;12.184;2023-04-28T12:20:11;17.90;91.90
2893;DHT22;1456;51.840;12.184;2023-04-28T12:22:57;17.60;92.20
2893;DHT22;1456;51.840;12.184;2023-04-28T12:25:24;17.50;92.10
2893;DHT22;1456;51.840;12.184;2023-04-28T12:28:07;17.30;91.50
2893;DHT22;1456;51.840;12.184;2023-04-28T12:30:36;17.40;92.00
2893;DHT22;1456;51.840;12.184;2023-04-28T12:33:21;17.50;92.10
2893;DHT22;1456;51.840;12.184;2023-04-28T12:35:57;17.50;92.40
2893;DHT22;1456;51.840;12.184;2023-04-28T12:38:30;17.50;93.00
2893;DHT22;1456;51.840;12.184;2023-04-28T12:40:56;17.30;93.00
2893;DHT22;1456;51.840;12.184;2023-04-28T12:43:28;17.30;93.80
2893;DHT22;1456;51.840;12.184;2023-04-28T12:45:55;17.20;94.60
2893;DHT22;1456;51.840;12.184;2023-04-28T12:48:27;17.10;95.30
2893;DHT22;1456;51.840;12.184;2023-04-28T12:50:53;17.00;96.20
2893;DHT22;1456;51.840;12.184;2023-04-28T12:53:25;16.90;97.10
2893;DHT22;1456;51.840;12.184;2023-04-28T12:55:52;16.80;97.30
2893;DHT22;1456;51.840;12.184;2023-04-28T12:58:18;16.40;98.40
2893;DHT22;1456;51.840;12.184;2023-04-28T13:00:45;16.20;99.10
2893;DHT22;1456;51.840;12.184;2023-04-28T13:03:12;15.90;98.80
2893;DHT22;1456;51.840;12.184;2023-04-28T13:05:39;15.60;99.80
2893;DHT22;1456;51.840;12.184;2023-04-28T13:08:05;15.40;99.90
2893;DHT22;1456;51.840;12.184;2023-04-28T13:10:31;15.40;99.90
2893;DHT22;1456;51.840;12.184;2023-04-28T13:12:56;15.30;99.90
2893;DHT22;1456;51.840;12.184;2023-04-28T13:15:24;15.10;99.90
2893;DHT22;1456;51.840;12.184;2023-04-28T13:17:52;15.00;99.90
2893;DHT22;1456;51.840;12.184;2023-04-28T13:20:22;14.80;99.90
2893;DHT22;1456;51.840;12.184;2023-04-28T13:22:48;14.70;99.90
2893;DHT22;1456;51.840;12.184;2023-04-28T13:25:14;14.50;99.90
2893;DHT22;1456;51.840;12.184;2023-04-28T13:27:41;14.40;99.90
2893;DHT22;1456;51.840;12.184;2023-04-28T13:30:07;14.10;99.90
2893;DHT22;1456;51.840;12.184;2023-04-28T13:32:37;14.00;99.90
2893;DHT22;1456;51.840;12.184;2023-04-28T13:35:03;13.90;99.90
2893;DHT22;1456;51.840;12.184;2023-04-28T13:37:31;13.90;99.90
2893;DHT22;1456;51.840;12.184;2023-04-28T13:39:57;13.90;99.90
2893;DHT22;1456;51.840;12.184;2023-04-28T13:42:23;13.80;99.90
2893;DHT22;1456;51.840;12.184;2023-04-28T13:44:50;13.80;99.90
2893;DHT22;1456;51.840;12.184;2023-04-28T13:47:18;13.70;99.90
2893;DHT22;1456;51.840;12.184;2023-04-28T13:49:50;13.70;99.90
2893;DHT22;1456;51.840;12.184;2023-04-28T13:52:18;13.80;99.90
2893;DHT22;1456;51.840;12.184;2023-04-28T13:54:45;13.90;99.90
2893;DHT22;1456;51.840;12.184;2023-04-28T13:57:13;14.20;99.90
2893;DHT22;1456;51.840;12.184;2023-04-28T13:59:41;14.40;99.90
2893;DHT22;1456;51.840;12.184;2023-04-28T14:02:06;14.70;99.90
2893;DHT22;1456;51.840;12.184;2023-04-28T14:04:34;14.90;99.90
2893;DHT22;1456;51.840;12.184;2023-04-28T14:07:01;15.10;99.90
2893;DHT22;1456;51.840;12.184;2023-04-28T14:09:43;15.40;99.90
2893;DHT22;1456;51.840;12.184;2023-04-28T14:12:09;15.70;99.90
2893;DHT22;1456;51.840;12.184;2023-04-28T14:14:38;15.90;99.90
2893;DHT22;1456;51.840;12.184;2023-04-28T14:17:05;15.90;99.90
2893;DHT22;1456;51.840;12.184;2023-04-28T14:19:31;16.00;99.90
2893;DHT22;1456;51.840;12.184;2023-04-28T14:21:57;16.10;99.90
2893;DHT22;1456;51.840;12.184;2023-04-28T14:24:23;16.10;99.90
2893;DHT22;1456;51.840;12.184;2023-04-28T14:26:48;15.90;99.90
2893;DHT22;1456;51.840;12.184;2023-04-28T14:29:18;16.00;99.90
2893;DHT22;1456;51.840;12.184;2023-04-28T14:31:47;16.00;99.90
2893;DHT22;1456;51.840;12.184;2023-04-28T14:34:13;16.10;99.90
2893;DHT22;1456;51.840;12.184;2023-04-28T14:36:40;16.30;99.90
2893;DHT22;1456;51.840;12.184;2023-04-28T14:39:06;16.40;99.90
2893;DHT22;1456;51.840;12.184;2023-04-28T14:41:33;16.30;99.90
2893;DHT22;1456;51.840;12.184;2023-04-28T14:44:01;16.20;99.90
2893;DHT22;1456;51.840;12.184;2023-04-28T14:46:28;16.10;99.90
2893;DHT22;1456;51.840;12.184;2023-04-28T14:48:55;15.90;99.90
2893;DHT22;1456;51.840;12.184;2023-04-28T14:51:22;15.80;99.90
2893;DHT22;1456;51.840;12.184;2023-04-28T14:53:50;15.80;99.90
2893;DHT22;1456;51.840;12.184;2023-04-28T14:56:17;15.70;99.90
2893;DHT22;1456;51.840;12.184;2023-04-28T14:58:48;15.80;99.90
2893;DHT22;1456;51.840;12.184;2023-04-28T15:01:17;15.80;99.90
2893;DHT22;1456;51.840;12.184;2023-04-28T15:03:50;15.70;99.90
2893;DHT22;1456;51.840;12.184;2023-04-28T15:06:22;15.60;99.90
2893;DHT22;1456;51.840;12.184;2023-04-28T15:08:53;15.50;99.90
2893;DHT22;1456;51.840;12.184;2023-04-28T15:11:25;15.40;99.90
2893;DHT22;1456;51.840;12.184;2023-04-28T15:13:51;15.20;99.90
2893;DHT22;1456;51.840;12.184;2023-04-28T15:16:19;15.00;99.90
2893;DHT22;1456;51.840;12.184;2023-04-28T15:18:46;14.90;99.90
2893;DHT22;1456;51.840;12.184;2023-04-28T15:21:18;14.80;99.90
2893;DHT22;1456;51.840;12.184;2023-04-28T15:23:44;14.60;99.90
2893;DHT22;1456;51.840;12.184;2023-04-28T15:26:10;14.50;99.90
2893;DHT22;1456;51.840;12.184;2023-04-28T15:28:37;14.40;99.90
2893;DHT22;1456;51.840;12.184;2023-04-28T15:31:05;14.40;99.90
2893;DHT22;1456;51.840;12.184;2023-04-28T15:33:31;14.40;99.90
2893;DHT22;1456;51.840;12.184;2023-04-28T15:35:58;14.40;99.90
2893;DHT22;1456;51.840;12.184;2023-04-28T15:38:25;14.40;99.90
2893;DHT22;1456;51.840;12.184;2023-04-28T15:40:53;14.50;99.90
2893;DHT22;1456;51.840;12.184;2023-04-28T15:43:19;14.40;99.90
2893;DHT22;1456;51.840;12.184;2023-04-28T15:45:47;14.40;99.90
2893;DHT22;1456;51.840;12.184;2023-04-28T15:48:13;14.40;99.90
2893;DHT22;1456;51.840;12.184;2023-04-28T15:50:39;14.40;99.90
2893;DHT22;1456;51.840;12.184;2023-04-28T15:53:11;14.40;99.90
2893;DHT22;1456;51.840;12.184;2023-04-28T15:55:38;14.50;99.90
2893;DHT22;1456;51.840;12.184;2023-04-28T15:58:06;14.50;99.90
2893;DHT22;1456;51.840;12.184;2023-04-28T16:00:33;14.50;99.90
2893;DHT22;1456;51.840;12.184;2023-04-28T16:02:59;14.40;99.90
2893;DHT22;1456;51.840;12.184;2023-04-28T16:05:27;14.40;99.90
2893;DHT22;1456;51.840;12.184;2023-04-28T16:07:54;14.30;99.90
2893;DHT22;1456;51.840;12.184;2023-04-28T16:10:20;14.30;99.90
2893;DHT22;1456;51.840;12.184;2023-04-28T16:12:46;14.30;99.90
2893;DHT22;1456;51.840;12.184;2023-04-28T16:15:17;14.20;99.90
2893;DHT22;1456;51.840;12.184;2023-04-28T16:17:44;14.20;99.90
2893;DHT22;1456;51.840;12.184;2023-04-28T16:20:10;14.10;99.90
2893;DHT22;1456;51.840;12.184;2023-04-28T16:22:38;14.10;99.90
2893;DHT22;1456;51.840;12.184;2023-04-28T16:25:06;14.00;99.90
2893;DHT22;1456;51.840;12.184;2023-04-28T16:27:35;14.00;99.90